Irving, TX

1:08 PM CDT on August 30, 2015 (GMT -0500)
Toler Lane, Irving, Texas USA | | Change Station
CLOSE
Current Station
Personal Weather Station
Location: Irving, TX
Elevation: 551 ft
Nearby Weather Stations

Elev 551 ft 32.84 °N, 96.96 °W | Updated 20 seconds ago

Mostly Cloudy
Mostly Cloudy
97.2 °F
Feels Like 103 °F
N
1.2
Wind Variable Wind from West
Gusts 1.2 mph

Today
High -- | Low -- °F
--% Chance of Precip.
Yesterday
High -- | Low -- °F
Precip. -- in
7:01 AM 7:55 PM
Full, 99% visible
Pressure 29.96 in
Visibility 10.0 miles
Clouds Few 14000 ft
Mostly Cloudy 28000 ft
Heat Index 103 °F
Dew Point 68 °F
Humidity 39%
Rainfall 0.00 in
Snow Depth Not available.
UV 6 out of 12
Pollen 8.70 out of 12
Air Quality Not available.
Flu Activity Not available.
METAR KDFW 301753Z 23011G18KT 10SM FEW140 BKN280 34/16 A2999 RMK AO2 SLP145 T03390156 10344 20244 58003
Pressure 29.96 in
Visibility 10.0 miles
Clouds Few 14000 ft
Mostly Cloudy 28000 ft
Heat Index 103 °F
Dew Point 68 °F
Humidity 39%
Rainfall 0.00 in
Snow Depth Not available.
UV 6 out of 12
Pollen 8.70 out of 12
Air Quality Not available.
Flu Activity Not available.
METAR KDFW 301753Z 23011G18KT 10SM FEW140 BKN280 34/16 A2999 RMK AO2 SLP145 T03390156 10344 20244 58003
Nowcast | as of 12:52 PM CDT on August 30, 2015

Light rain showers will continue across portions of central Texas this afternoon. Rainfall amounts will be light...generally only a few hundredths of an inch at most. Later this afternoon...showers and thunderstorms may develop. The activity will primarily impact areas south of the I-20 corridor. Those engaged in outdoor activities should keep abreast of the weather. Move indoors immediately if lightning is seen or thunder is heard.

×

10-Day Weather Forecast

×

Almanac

Astronomy

Aug. 30, 2015 Rise Set
Actual Time
Civil Twilight
Nautical Twilight
Astronomical Twilight
Moon
Length of Visible Light
Length of Day
Tomorrow will be .
, % of the Moon is Illuminated

Today's Extremes

State Highs State Lows

Community

WunderPhotos

Upload Photos

1,851,021 photos uploaded!

WunderBlogs® & News

Nearby

Air Quality

  Air Quality AQ Index Pollutant
Not available.

Snow Depth

Station Depth Elevation

Earthquake Activity

City Distance Mag. Time & Date
Minimum magnitude displayed is 2.5.

Coastal Water Temperatures

Place Temperature

Stations

Nearby Weather Stations

Station Location Temp. Windchill Dew Point Humidity Wind Precip. Elev Updated Type